createdAt,value
2023-01-08T00:00:21.940Z,-23.90
2023-01-08T00:03:26.580Z,-23.45
2023-01-08T00:06:30.886Z,-22.91
2023-01-08T00:09:34.901Z,-22.20
2023-01-08T00:12:38.778Z,-21.04
2023-01-08T00:15:42.639Z,-20.21
2023-01-08T00:18:48.195Z,-19.62
2023-01-08T00:21:52.631Z,-18.43
2023-01-08T00:24:56.750Z,-17.03
2023-01-08T00:28:00.804Z,-17.42
2023-01-08T00:31:05.867Z,-17.80
2023-01-08T00:34:10.240Z,-17.01
2023-01-08T00:37:14.057Z,-17.06
2023-01-08T00:40:18.136Z,-17.24
2023-01-08T00:43:23.150Z,-17.60
2023-01-08T00:46:27.249Z,-17.61
2023-01-08T00:49:31.408Z,-16.86
2023-01-08T00:52:35.341Z,-16.71
2023-01-08T00:55:39.046Z,-17.10
2023-01-08T00:58:43.001Z,-16.94
2023-01-08T01:01:47.060Z,-16.34
2023-01-08T01:04:51.176Z,-15.94
2023-01-08T01:07:55.297Z,-15.84
2023-01-08T01:10:59.309Z,-15.25
2023-01-08T01:14:03.508Z,-14.19
2023-01-08T01:17:07.646Z,-13.67
2023-01-08T01:20:15.573Z,-13.80
2023-01-08T01:23:19.545Z,-12.98
2023-01-08T01:26:24.261Z,-12.41
2023-01-08T01:29:28.342Z,-11.74
2023-01-08T01:32:34.622Z,-12.23
2023-01-08T01:35:38.693Z,-12.08
2023-01-08T01:38:46.454Z,-12.44
2023-01-08T01:41:50.806Z,-11.77
2023-01-08T01:44:55.331Z,-11.62
2023-01-08T01:48:03.958Z,-11.08
2023-01-08T01:51:08.268Z,-10.84
2023-01-08T01:54:14.059Z,-11.68
2023-01-08T01:57:18.038Z,-12.43
2023-01-08T02:00:23.987Z,-11.58
2023-01-08T02:03:33.923Z,-11.40
2023-01-08T02:06:55.932Z,-12.84
2023-01-08T02:10:11.227Z,-13.18
2023-01-08T02:13:22.932Z,-13.54
2023-01-08T02:16:44.337Z,-13.31
2023-01-08T02:19:56.725Z,-12.86
2023-01-08T02:23:41.824Z,-12.60
2023-01-08T02:26:48.047Z,-12.22
2023-01-08T02:29:54.730Z,-12.29
2023-01-08T02:32:58.852Z,-12.76
2023-01-08T02:36:26.538Z,-13.50
2023-01-08T02:39:50.123Z,-13.17
2023-01-08T02:43:04.255Z,-13.02
2023-01-08T02:46:15.799Z,-14.25
2023-01-08T02:49:22.316Z,-13.49
2023-01-08T02:52:31.329Z,-13.43
2023-01-08T02:55:38.448Z,-13.41
2023-01-08T02:58:44.672Z,-14.02
2023-01-08T03:01:49.268Z,-14.41
2023-01-08T03:05:00.142Z,-13.96
2023-01-08T03:08:04.031Z,-14.80
2023-01-08T03:11:15.502Z,-14.03
2023-01-08T03:14:27.905Z,-14.38
2023-01-08T03:17:38.621Z,-14.76
2023-01-08T03:20:44.859Z,-14.36
2023-01-08T03:23:50.948Z,-13.97
2023-01-08T03:27:00.350Z,-14.41
2023-01-08T03:30:06.108Z,-14.36
2023-01-08T03:33:12.966Z,-14.27
2023-01-08T03:36:21.835Z,-14.12
2023-01-08T03:39:35.228Z,-14.31
2023-01-08T03:42:39.296Z,-14.47
2023-01-08T03:45:50.964Z,-14.34
2023-01-08T03:48:56.616Z,-14.17
2023-01-08T03:52:00.509Z,-14.31
2023-01-08T03:55:05.032Z,-14.49
2023-01-08T03:58:09.156Z,-14.40
2023-01-08T04:01:13.114Z,-14.17
2023-01-08T04:04:17.964Z,-14.63
2023-01-08T04:07:22.118Z,-14.16
2023-01-08T04:10:27.569Z,-13.95
2023-01-08T04:13:31.831Z,-14.14
2023-01-08T04:16:35.695Z,-14.08
2023-01-08T04:19:40.120Z,-14.89
2023-01-08T04:22:43.901Z,-14.90
2023-01-08T04:25:47.824Z,-14.35
2023-01-08T04:28:52.398Z,-14.04
2023-01-08T04:31:56.277Z,-13.84
2023-01-08T04:35:00.402Z,-14.05
2023-01-08T04:38:06.389Z,-13.70
2023-01-08T04:41:11.093Z,-13.36
2023-01-08T04:44:14.973Z,-13.35
2023-01-08T04:47:18.830Z,-13.39
2023-01-08T04:50:24.607Z,-13.35
2023-01-08T04:53:29.232Z,-13.82
2023-01-08T04:56:33.489Z,-13.76
2023-01-08T04:59:37.282Z,-13.81
2023-01-08T05:02:41.309Z,-13.85
2023-01-08T05:05:45.333Z,-13.83
2023-01-08T05:08:49.282Z,-14.00
2023-01-08T05:11:53.164Z,-13.98
2023-01-08T05:14:57.245Z,-13.73
2023-01-08T05:18:02.936Z,-14.19
2023-01-08T05:21:07.335Z,-13.89
2023-01-08T05:24:11.227Z,-13.94
2023-01-08T05:27:15.449Z,-14.00
2023-01-08T05:30:19.458Z,-13.88
2023-01-08T05:33:23.894Z,-13.90
2023-01-08T05:36:28.473Z,-14.11
2023-01-08T05:39:32.517Z,-14.14
2023-01-08T05:42:37.126Z,-14.08
2023-01-08T05:45:41.092Z,-14.17
2023-01-08T05:48:44.948Z,-14.08
2023-01-08T05:51:49.916Z,-13.88
2023-01-08T05:54:53.830Z,-13.87
2023-01-08T05:58:01.400Z,-13.87
2023-01-08T06:01:12.239Z,-13.98
2023-01-08T06:04:16.241Z,-14.01
2023-01-08T06:07:19.979Z,-13.96
2023-01-08T06:10:23.932Z,-13.85
2023-01-08T06:13:28.329Z,-13.88
2023-01-08T06:16:32.365Z,-14.01
2023-01-08T06:19:36.194Z,-14.15
2023-01-08T06:22:40.062Z,-14.18
2023-01-08T06:25:43.982Z,-14.09
2023-01-08T06:28:47.932Z,-14.24
2023-01-08T06:31:51.660Z,-14.29
2023-01-08T06:34:55.557Z,-14.23
2023-01-08T06:38:00.538Z,-14.59
2023-01-08T06:41:11.256Z,-14.72
2023-01-08T06:44:16.273Z,-14.30
2023-01-08T06:47:21.184Z,-14.53
2023-01-08T06:50:26.583Z,-14.46
2023-01-08T06:53:33.260Z,-14.38
2023-01-08T06:56:53.212Z,-14.60
2023-01-08T06:59:58.400Z,-14.77
2023-01-08T07:03:03.553Z,-14.69
2023-01-08T07:06:08.935Z,-14.81
2023-01-08T07:09:14.868Z,-15.17
2023-01-08T07:12:21.151Z,-15.24
2023-01-08T07:15:26.827Z,-15.44
2023-01-08T07:18:32.547Z,-15.14
2023-01-08T07:21:37.539Z,-15.09
2023-01-08T07:24:42.566Z,-15.20
2023-01-08T07:27:51.431Z,-15.18
2023-01-08T07:30:56.531Z,-15.24
2023-01-08T07:34:00.979Z,-15.45
2023-01-08T07:37:06.215Z,-15.73
2023-01-08T07:40:12.686Z,-15.83
2023-01-08T07:43:17.851Z,-15.61
2023-01-08T07:46:24.565Z,-15.38
2023-01-08T07:49:31.107Z,-15.54
2023-01-08T07:52:36.223Z,-15.42
2023-01-08T07:55:42.275Z,-15.19
2023-01-08T07:58:47.365Z,-15.47
2023-01-08T08:01:52.527Z,-15.62
2023-01-08T08:04:57.631Z,-15.49
2023-01-08T08:08:02.882Z,-15.61
2023-01-08T08:11:07.595Z,-15.69
2023-01-08T08:14:11.894Z,-15.68
2023-01-08T08:17:16.906Z,-15.62
2023-01-08T08:20:21.978Z,-15.62
2023-01-08T08:23:27.256Z,-15.76
2023-01-08T08:26:32.063Z,-15.69
2023-01-08T08:29:37.058Z,-15.86
2023-01-08T08:32:43.566Z,-15.89
2023-01-08T08:35:52.536Z,-16.00
2023-01-08T08:38:57.725Z,-15.83
2023-01-08T08:42:01.731Z,-15.73
2023-01-08T08:45:07.531Z,-15.76
2023-01-08T08:48:12.273Z,-15.79
2023-01-08T08:51:17.173Z,-15.79
2023-01-08T08:54:22.068Z,-15.83
2023-01-08T08:57:29.983Z,-15.69
2023-01-08T09:00:35.042Z,-15.78
2023-01-08T09:03:40.390Z,-15.74
2023-01-08T09:06:45.505Z,-15.59
2023-01-08T09:09:51.089Z,-15.70
2023-01-08T09:12:55.772Z,-15.59
2023-01-08T09:16:01.827Z,-15.60
2023-01-08T09:19:08.003Z,-15.76
2023-01-08T09:22:12.875Z,-15.91
2023-01-08T09:25:18.185Z,-16.65
2023-01-08T09:28:23.109Z,-17.43
2023-01-08T09:31:29.189Z,-17.64
2023-01-08T09:34:34.406Z,-18.24
2023-01-08T09:37:39.059Z,-18.11
2023-01-08T09:41:13.178Z,-18.44
2023-01-08T09:44:24.385Z,-18.71
2023-01-08T09:47:42.590Z,-18.57
2023-01-08T09:50:49.617Z,-18.66
2023-01-08T09:53:59.961Z,-18.87
2023-01-08T09:57:05.305Z,-18.87
2023-01-08T10:00:19.681Z,-18.80
2023-01-08T10:03:31.746Z,-18.97
2023-01-08T10:06:36.314Z,-19.31
2023-01-08T10:09:42.765Z,-19.13
2023-01-08T10:12:47.768Z,-19.02
2023-01-08T10:15:53.119Z,-19.27
2023-01-08T10:19:00.608Z,-18.90
2023-01-08T10:22:11.891Z,-19.19
2023-01-08T10:25:19.901Z,-19.81
2023-01-08T10:28:36.348Z,-19.43
2023-01-08T10:31:51.118Z,-19.13
2023-01-08T10:34:58.438Z,-18.99
2023-01-08T10:38:03.305Z,-18.89
2023-01-08T10:41:10.039Z,-18.92
2023-01-08T10:44:19.842Z,-19.09
2023-01-08T10:47:25.943Z,-19.28
2023-01-08T10:50:32.943Z,-19.16
2023-01-08T10:53:36.945Z,-18.99
2023-01-08T10:56:45.891Z,-18.90
2023-01-08T10:59:49.912Z,-19.12
2023-01-08T11:02:55.290Z,-18.89
2023-01-08T11:05:59.846Z,-19.11
2023-01-08T11:09:19.095Z,-19.10
2023-01-08T11:12:35.125Z,-19.51
2023-01-08T11:15:41.694Z,-19.52
2023-01-08T11:18:50.809Z,-19.56
2023-01-08T11:22:19.114Z,-19.66
2023-01-08T11:25:29.934Z,-19.85
2023-01-08T11:28:57.852Z,-20.10
2023-01-08T11:32:19.054Z,-20.19
2023-01-08T11:35:30.802Z,-20.26
2023-01-08T11:38:34.849Z,-20.21
2023-01-08T11:41:41.995Z,-20.01
2023-01-08T11:45:19.920Z,-20.21
2023-01-08T11:48:48.446Z,-19.70
2023-01-08T11:52:20.961Z,-19.71
2023-01-08T11:55:59.088Z,-19.91
2023-01-08T11:59:24.684Z,-20.06
2023-01-08T12:03:16.182Z,-19.75
2023-01-08T12:06:36.901Z,-19.87
2023-01-08T12:10:13.169Z,-19.66
2023-01-08T12:13:40.319Z,-20.12
2023-01-08T12:17:03.319Z,-19.99
2023-01-08T12:20:23.187Z,-20.25
2023-01-08T12:23:45.720Z,-20.17
2023-01-08T12:27:08.260Z,-20.09
2023-01-08T12:30:14.870Z,-19.81
2023-01-08T12:33:34.161Z,-20.10
2023-01-08T12:36:43.879Z,-19.82
2023-01-08T12:39:54.185Z,-19.69
2023-01-08T12:43:02.238Z,-19.67
2023-01-08T12:46:08.739Z,-19.77
2023-01-08T12:49:22.531Z,-19.90
2023-01-08T12:53:15.711Z,-19.66
2023-01-08T12:56:40.779Z,-19.26
2023-01-08T13:00:08.696Z,-19.44
2023-01-08T13:03:22.370Z,-19.89
2023-01-08T13:06:28.099Z,-19.87
2023-01-08T13:09:33.076Z,-19.72
2023-01-08T13:12:38.273Z,-19.49
2023-01-08T13:15:42.363Z,-19.66
2023-01-08T13:19:42.007Z,-19.90
2023-01-08T13:22:52.918Z,-19.75
2023-01-08T13:25:59.707Z,-19.60
2023-01-08T13:29:35.468Z,-19.19
2023-01-08T13:32:44.724Z,-19.77
2023-01-08T13:35:48.855Z,-19.55
2023-01-08T13:39:13.575Z,-19.56
2023-01-08T13:42:23.657Z,-19.40
2023-01-08T13:45:29.977Z,-19.29
2023-01-08T13:48:37.186Z,-19.43
2023-01-08T13:51:48.593Z,-18.96
2023-01-08T13:54:54.062Z,-19.15
2023-01-08T13:58:04.268Z,-19.34
2023-01-08T14:01:08.826Z,-19.32
2023-01-08T14:04:22.453Z,-19.05
2023-01-08T14:07:28.113Z,-19.45
2023-01-08T14:10:32.515Z,-19.37
2023-01-08T14:13:38.768Z,-19.53
2023-01-08T14:16:43.195Z,-19.51
2023-01-08T14:19:48.153Z,-19.31
2023-01-08T14:22:52.697Z,-19.51
2023-01-08T14:25:57.636Z,-19.34
2023-01-08T14:29:02.296Z,-19.57
2023-01-08T14:32:18.376Z,-19.88
2023-01-08T14:35:33.776Z,-19.76
2023-01-08T14:38:37.755Z,-20.06
2023-01-08T14:42:01.886Z,-19.88
2023-01-08T14:45:26.154Z,-19.67
2023-01-08T14:48:42.338Z,-19.52
2023-01-08T14:51:46.456Z,-19.38
2023-01-08T14:54:54.197Z,-19.37
2023-01-08T14:57:58.671Z,-19.42
2023-01-08T15:01:07.671Z,-19.39
2023-01-08T15:04:20.567Z,-18.94
2023-01-08T15:07:28.423Z,-19.04
2023-01-08T15:10:40.884Z,-19.28
2023-01-08T15:13:45.184Z,-19.51
2023-01-08T15:16:49.315Z,-19.43
2023-01-08T15:19:56.462Z,-19.52
2023-01-08T15:23:01.758Z,-19.29
2023-01-08T15:26:10.095Z,-18.70
2023-01-08T15:29:39.656Z,-18.60
2023-01-08T15:32:43.675Z,-18.88
2023-01-08T15:35:48.684Z,-18.96
2023-01-08T15:38:53.003Z,-19.10
2023-01-08T15:42:15.411Z,-19.01
2023-01-08T15:45:22.283Z,-18.94
2023-01-08T15:48:26.179Z,-18.55
2023-01-08T15:51:34.235Z,-18.36
2023-01-08T15:54:39.330Z,-18.64
2023-01-08T15:57:43.631Z,-18.75
2023-01-08T16:00:47.966Z,-18.71
2023-01-08T16:03:51.942Z,-18.58
2023-01-08T16:06:55.949Z,-18.55
2023-01-08T16:09:59.861Z,-18.97
2023-01-08T16:13:04.636Z,-18.95
2023-01-08T16:16:13.370Z,-19.01
2023-01-08T16:19:17.284Z,-19.09
2023-01-08T16:22:21.219Z,-19.16
2023-01-08T16:25:25.782Z,-19.37
2023-01-08T16:28:29.957Z,-19.19
2023-01-08T16:31:34.130Z,-19.15
2023-01-08T16:34:38.221Z,-19.26
2023-01-08T16:37:42.060Z,-19.16
2023-01-08T16:40:46.011Z,-19.17
2023-01-08T16:43:50.330Z,-19.28
2023-01-08T16:46:54.257Z,-19.39
2023-01-08T16:49:58.243Z,-19.52
2023-01-08T16:53:02.349Z,-19.28
2023-01-08T16:56:06.888Z,-19.18
2023-01-08T16:59:22.364Z,-19.38
2023-01-08T17:02:28.141Z,-19.23
2023-01-08T17:05:32.907Z,-19.15
2023-01-08T17:08:41.039Z,-19.31
2023-01-08T17:11:46.464Z,-19.09
2023-01-08T17:14:52.099Z,-18.82
2023-01-08T17:17:56.096Z,-18.70
2023-01-08T17:21:00.203Z,-18.79
2023-01-08T17:24:04.580Z,-18.83
2023-01-08T17:27:08.750Z,-18.94
2023-01-08T17:30:14.767Z,-18.81
2023-01-08T17:33:18.669Z,-19.00
2023-01-08T17:36:27.635Z,-18.88
2023-01-08T17:39:31.581Z,-18.92
2023-01-08T17:42:35.599Z,-18.69
2023-01-08T17:45:40.329Z,-18.45
2023-01-08T17:48:46.574Z,-18.99
2023-01-08T17:51:51.167Z,-18.89
2023-01-08T17:54:55.188Z,-19.05
2023-01-08T17:57:59.427Z,-19.17
2023-01-08T18:01:03.587Z,-19.51
2023-01-08T18:04:07.682Z,-18.95
2023-01-08T18:07:11.743Z,-19.02
2023-01-08T18:10:15.715Z,-19.30
2023-01-08T18:13:19.657Z,-19.07
2023-01-08T18:16:25.553Z,-18.84
2023-01-08T18:19:29.561Z,-18.55
2023-01-08T18:22:33.928Z,-18.37
2023-01-08T18:25:41.843Z,-18.46
2023-01-08T18:28:45.971Z,-18.44
2023-01-08T18:31:50.227Z,-18.17
2023-01-08T18:34:54.558Z,-18.24
2023-01-08T18:37:59.786Z,-18.23
2023-01-08T18:41:03.798Z,-18.25
2023-01-08T18:44:09.855Z,-18.12
2023-01-08T18:47:13.826Z,-18.11
2023-01-08T18:50:17.860Z,-18.07
2023-01-08T18:53:21.733Z,-18.05
2023-01-08T18:56:30.811Z,-18.23
2023-01-08T18:59:34.793Z,-18.14
2023-01-08T19:02:38.926Z,-18.30
2023-01-08T19:05:43.883Z,-18.31
2023-01-08T19:08:48.195Z,-18.22
2023-01-08T19:11:52.174Z,-18.09
2023-01-08T19:14:56.199Z,-18.18
2023-01-08T19:18:01.220Z,-17.72
2023-01-08T19:21:10.584Z,-17.86
2023-01-08T19:24:14.979Z,-17.95
2023-01-08T19:27:18.880Z,-17.58
2023-01-08T19:30:23.287Z,-17.46
2023-01-08T19:33:27.868Z,-17.93
2023-01-08T19:36:32.192Z,-18.10
2023-01-08T19:39:37.010Z,-18.26
2023-01-08T19:43:00.280Z,-17.82
2023-01-08T19:46:07.854Z,-17.86
2023-01-08T19:49:12.508Z,-18.24
2023-01-08T19:52:18.537Z,-18.52
2023-01-08T19:55:23.063Z,-18.60
2023-01-08T19:58:30.094Z,-18.45
2023-01-08T20:01:36.254Z,-17.98
2023-01-08T20:04:44.367Z,-17.56
2023-01-08T20:07:48.334Z,-17.40
2023-01-08T20:10:52.587Z,-17.83
2023-01-08T20:14:01.012Z,-17.99
2023-01-08T20:17:05.112Z,-17.71
2023-01-08T20:20:12.656Z,-17.94
2023-01-08T20:23:17.223Z,-17.99
2023-01-08T20:26:21.573Z,-18.23
2023-01-08T20:29:26.969Z,-18.28
2023-01-08T20:32:30.562Z,-18.43
2023-01-08T20:35:37.911Z,-18.79
2023-01-08T20:38:42.727Z,-18.77
2023-01-08T20:42:00.846Z,-18.56
2023-01-08T20:45:09.480Z,-18.59
2023-01-08T20:48:13.622Z,-18.66
2023-01-08T20:51:20.769Z,-18.75
2023-01-08T20:54:29.372Z,-18.84
2023-01-08T20:57:34.253Z,-18.71
2023-01-08T21:00:39.074Z,-18.79
2023-01-08T21:03:44.482Z,-18.64
2023-01-08T21:06:48.633Z,-18.30
2023-01-08T21:09:52.929Z,-18.66
2023-01-08T21:12:56.817Z,-18.75
2023-01-08T21:16:16.575Z,-18.50
2023-01-08T21:19:20.987Z,-18.46
2023-01-08T21:22:25.555Z,-18.19
2023-01-08T21:25:30.661Z,-17.96
2023-01-08T21:28:35.348Z,-17.74
2023-01-08T21:31:40.884Z,-17.66
2023-01-08T21:34:45.565Z,-17.78
2023-01-08T21:37:49.879Z,-18.15
2023-01-08T21:41:06.626Z,-17.93
2023-01-08T21:44:45.570Z,-18.21
2023-01-08T21:47:49.478Z,-17.85
2023-01-08T21:50:53.784Z,-18.23
2023-01-08T21:53:57.781Z,-17.97
2023-01-08T21:57:01.676Z,-17.94
2023-01-08T22:00:06.525Z,-18.26
2023-01-08T22:03:10.199Z,-18.20
2023-01-08T22:06:14.255Z,-18.30
2023-01-08T22:09:18.545Z,-18.49
2023-01-08T22:12:23.694Z,-18.07
2023-01-08T22:15:27.665Z,-18.08
2023-01-08T22:18:33.016Z,-18.28
2023-01-08T22:21:36.918Z,-18.66
2023-01-08T22:24:45.565Z,-18.69
2023-01-08T22:27:52.341Z,-18.70
2023-01-08T22:30:56.335Z,-18.78
2023-01-08T22:34:00.566Z,-18.79
2023-01-08T22:37:04.766Z,-18.92
2023-01-08T22:40:09.115Z,-18.88
2023-01-08T22:43:13.173Z,-18.93
2023-01-08T22:46:18.051Z,-18.87
2023-01-08T22:49:22.190Z,-18.61
2023-01-08T22:52:25.913Z,-18.60
2023-01-08T22:55:30.034Z,-18.51
2023-01-08T22:58:33.828Z,-18.66
2023-01-08T23:01:38.049Z,-18.60
2023-01-08T23:04:42.185Z,-18.59
2023-01-08T23:07:46.229Z,-18.63
2023-01-08T23:10:50.030Z,-18.82
2023-01-08T23:13:54.112Z,-18.47
2023-01-08T23:17:00.224Z,-18.65
2023-01-08T23:20:08.418Z,-18.77
2023-01-08T23:23:12.249Z,-18.77
2023-01-08T23:26:23.227Z,-18.85
2023-01-08T23:29:30.212Z,-18.93
2023-01-08T23:32:34.317Z,-18.86
2023-01-08T23:35:38.269Z,-18.96
2023-01-08T23:38:42.314Z,-19.03
2023-01-08T23:41:46.172Z,-18.95
2023-01-08T23:44:50.953Z,-18.60
2023-01-08T23:47:54.962Z,-18.34
2023-01-08T23:50:59.497Z,-18.24
2023-01-08T23:54:03.531Z,-17.81
2023-01-08T23:57:07.565Z,-17.58
